createdAt,value
2023-03-08T00:01:04.249Z,0.70
2023-03-08T00:03:33.596Z,0.70
2023-03-08T00:06:05.671Z,0.77
2023-03-08T00:08:34.704Z,0.83
2023-03-08T00:11:07.017Z,0.80
2023-03-08T00:13:35.659Z,0.83
2023-03-08T00:16:06.221Z,1.47
2023-03-08T00:18:36.190Z,0.70
2023-03-08T00:21:07.139Z,0.93
2023-03-08T00:23:35.387Z,1.23
2023-03-08T00:26:03.746Z,0.90
2023-03-08T00:28:32.591Z,1.20
2023-03-08T00:31:02.645Z,1.00
2023-03-08T00:33:32.931Z,1.00
2023-03-08T00:36:04.949Z,0.80
2023-03-08T00:38:35.383Z,0.87
2023-03-08T00:41:04.165Z,1.50
2023-03-08T00:43:33.920Z,1.20
2023-03-08T00:46:01.948Z,1.20
2023-03-08T00:48:31.282Z,2.00
2023-03-08T00:50:59.247Z,1.03
2023-03-08T00:53:28.658Z,1.47
2023-03-08T00:55:58.451Z,1.90
2023-03-08T00:58:28.697Z,1.20
2023-03-08T01:00:56.947Z,1.80
2023-03-08T01:03:26.128Z,1.50
2023-03-08T01:05:56.351Z,1.47
2023-03-08T01:08:25.944Z,1.10
2023-03-08T01:10:58.568Z,1.67
2023-03-08T01:13:29.190Z,1.60
2023-03-08T01:15:57.635Z,1.67
2023-03-08T01:18:25.871Z,1.83
2023-03-08T01:20:59.316Z,1.40
2023-03-08T01:23:27.809Z,1.43
2023-03-08T01:26:05.972Z,1.23
2023-03-08T01:28:34.970Z,1.10
2023-03-08T01:31:04.790Z,1.10
2023-03-08T01:33:33.080Z,1.53
2023-03-08T01:36:03.419Z,1.77
2023-03-08T01:38:31.498Z,1.80
2023-03-08T01:41:00.432Z,1.57
2023-03-08T01:43:32.988Z,1.97
2023-03-08T01:46:11.015Z,2.10
2023-03-08T01:48:42.313Z,1.53
2023-03-08T01:51:13.829Z,2.63
2023-03-08T01:53:43.536Z,1.37
2023-03-08T01:56:15.091Z,1.93
2023-03-08T01:58:47.290Z,1.93
2023-03-08T02:01:16.054Z,1.60
2023-03-08T02:03:44.001Z,1.93
2023-03-08T02:06:13.742Z,1.57
2023-03-08T02:08:44.877Z,1.33
2023-03-08T02:11:16.645Z,2.77
2023-03-08T02:13:46.255Z,1.90
2023-03-08T02:16:16.712Z,2.37
2023-03-08T02:18:53.366Z,3.73
2023-03-08T02:21:21.519Z,3.17
2023-03-08T02:23:51.039Z,4.60
2023-03-08T02:26:19.614Z,1.90
2023-03-08T02:28:47.885Z,1.83
2023-03-08T02:31:16.881Z,1.90
2023-03-08T02:33:46.759Z,6.53
2023-03-08T02:36:14.764Z,2.60
2023-03-08T02:38:42.700Z,4.47
2023-03-08T02:41:12.053Z,2.40
2023-03-08T02:43:40.111Z,3.37
2023-03-08T02:46:08.097Z,1.90
2023-03-08T02:48:36.096Z,1.97
2023-03-08T02:51:04.141Z,4.10
2023-03-08T02:53:32.150Z,3.17
2023-03-08T02:56:00.197Z,3.17
2023-03-08T02:58:29.575Z,5.47
2023-03-08T03:00:57.866Z,6.33
2023-03-08T03:03:25.925Z,4.30
2023-03-08T03:05:53.929Z,4.60
2023-03-08T03:08:21.990Z,10.47
2023-03-08T03:10:50.027Z,3.93
2023-03-08T03:13:17.996Z,3.67
2023-03-08T03:15:47.402Z,4.63
2023-03-08T03:18:15.474Z,3.87
2023-03-08T03:20:43.430Z,5.03
2023-03-08T03:23:11.477Z,3.60
2023-03-08T03:25:39.454Z,4.33
2023-03-08T03:28:07.428Z,7.13
2023-03-08T03:30:35.445Z,5.27
2023-03-08T03:33:04.947Z,6.47
2023-03-08T03:35:32.979Z,5.00
2023-03-08T03:38:00.965Z,6.40
2023-03-08T03:40:28.952Z,4.67
2023-03-08T03:42:56.924Z,4.80
2023-03-08T03:45:24.916Z,4.37
2023-03-08T03:47:52.986Z,4.73
2023-03-08T03:50:22.327Z,4.37
2023-03-08T03:52:50.402Z,7.83
2023-03-08T03:55:18.627Z,7.90
2023-03-08T03:57:46.586Z,7.70
2023-03-08T04:00:16.341Z,8.77
2023-03-08T04:02:44.351Z,6.87
2023-03-08T04:05:12.455Z,50.90
2023-03-08T04:07:41.805Z,8.50
2023-03-08T04:10:10.744Z,5.87
2023-03-08T04:12:38.735Z,7.27
2023-03-08T04:15:08.951Z,13.80
2023-03-08T04:17:36.958Z,9.57
2023-03-08T04:20:06.773Z,7.30
2023-03-08T04:22:34.872Z,4.10
2023-03-08T04:25:04.460Z,7.43
2023-03-08T04:27:32.448Z,8.13
2023-03-08T04:30:00.438Z,7.60
2023-03-08T04:32:28.463Z,8.70
2023-03-08T04:34:56.483Z,7.20
2023-03-08T04:37:24.985Z,7.57
2023-03-08T04:39:52.984Z,7.00
2023-03-08T04:42:22.336Z,10.37
2023-03-08T04:44:50.664Z,17.13
2023-03-08T04:47:18.640Z,10.40
2023-03-08T04:49:46.902Z,6.70
2023-03-08T04:52:14.887Z,7.10
2023-03-08T04:54:42.964Z,9.00
2023-03-08T04:57:10.949Z,10.50
2023-03-08T04:59:40.284Z,11.57
2023-03-08T05:02:08.344Z,12.67
2023-03-08T05:04:36.436Z,11.10
2023-03-08T05:07:04.524Z,10.03
2023-03-08T05:09:32.528Z,10.00
2023-03-08T05:12:00.594Z,9.57
2023-03-08T05:14:28.602Z,9.67
2023-03-08T05:16:59.353Z,12.00
2023-03-08T05:19:28.407Z,8.07
2023-03-08T05:21:56.384Z,10.87
2023-03-08T05:24:24.439Z,11.43
2023-03-08T05:26:52.463Z,8.13
2023-03-08T05:29:20.462Z,6.60
2023-03-08T05:31:50.684Z,13.00
2023-03-08T05:34:20.086Z,10.37
2023-03-08T05:36:48.089Z,8.83
2023-03-08T05:39:16.114Z,9.03
2023-03-08T05:41:44.058Z,9.00
2023-03-08T05:44:12.099Z,13.80
2023-03-08T05:46:40.164Z,11.47
2023-03-08T05:49:08.592Z,10.03
2023-03-08T05:51:37.975Z,9.20
2023-03-08T05:54:06.814Z,15.90
2023-03-08T05:56:34.806Z,14.33
2023-03-08T05:59:02.808Z,13.07
2023-03-08T06:01:30.840Z,13.27
2023-03-08T06:04:01.895Z,10.87
2023-03-08T06:06:29.862Z,13.53
2023-03-08T06:08:59.281Z,14.40
2023-03-08T06:11:27.284Z,15.10
2023-03-08T06:13:55.534Z,11.17
2023-03-08T06:16:23.637Z,12.23
2023-03-08T06:18:51.922Z,14.03
2023-03-08T06:21:22.213Z,12.23
2023-03-08T06:23:50.860Z,11.83
2023-03-08T06:26:20.827Z,17.87
2023-03-08T06:28:48.852Z,15.17
2023-03-08T06:31:19.330Z,13.23
2023-03-08T06:33:47.416Z,19.73
2023-03-08T06:36:17.770Z,17.33
2023-03-08T06:38:46.883Z,18.00
2023-03-08T06:41:16.901Z,14.10
2023-03-08T06:43:46.295Z,14.30
2023-03-08T06:46:16.959Z,17.73
2023-03-08T06:48:45.468Z,18.90
2023-03-08T06:51:13.671Z,15.17
2023-03-08T06:53:43.435Z,21.47
2023-03-08T06:56:14.892Z,19.13
2023-03-08T06:58:44.246Z,16.10
2023-03-08T07:01:14.911Z,15.47
2023-03-08T07:03:45.258Z,22.00
2023-03-08T07:06:13.699Z,15.43
2023-03-08T07:08:42.274Z,18.20
2023-03-08T07:11:13.320Z,14.27
2023-03-08T07:13:41.495Z,22.33
2023-03-08T07:16:13.558Z,20.47
2023-03-08T07:18:42.440Z,18.27
2023-03-08T07:21:11.169Z,19.57
2023-03-08T07:23:39.189Z,14.00
2023-03-08T07:26:07.683Z,22.90
2023-03-08T07:28:36.165Z,20.00
2023-03-08T07:31:04.478Z,14.53
2023-03-08T07:33:35.377Z,17.03
2023-03-08T07:36:03.625Z,21.43
2023-03-08T07:38:31.894Z,18.90
2023-03-08T07:41:00.103Z,15.07
2023-03-08T07:43:28.172Z,15.93
2023-03-08T07:45:56.296Z,15.93
2023-03-08T07:48:24.390Z,27.73
2023-03-08T07:50:53.673Z,19.13
2023-03-08T07:53:21.898Z,21.00
2023-03-08T07:55:49.889Z,12.03
2023-03-08T07:58:17.914Z,19.40
2023-03-08T08:00:46.214Z,19.30
2023-03-08T08:03:14.243Z,17.77
2023-03-08T08:05:42.388Z,27.50
2023-03-08T08:08:13.909Z,21.67
2023-03-08T08:10:42.190Z,17.40
2023-03-08T08:13:10.515Z,15.70
2023-03-08T08:15:38.534Z,17.00
2023-03-08T08:18:06.901Z,17.33
2023-03-08T08:20:34.915Z,17.97
2023-03-08T08:23:02.906Z,17.27
2023-03-08T08:25:32.200Z,17.37
2023-03-08T08:28:00.277Z,19.00
2023-03-08T08:30:28.289Z,15.43
2023-03-08T08:32:56.315Z,14.20
2023-03-08T08:35:37.285Z,18.33
2023-03-08T08:38:10.321Z,17.70
2023-03-08T08:40:39.792Z,16.97
2023-03-08T08:43:07.890Z,22.60
2023-03-08T08:45:35.941Z,14.73
2023-03-08T08:48:04.251Z,14.60
2023-03-08T08:50:32.290Z,13.97
2023-03-08T08:53:00.437Z,10.90
2023-03-08T08:55:28.500Z,10.67
2023-03-08T08:57:57.905Z,15.67
2023-03-08T09:00:26.166Z,13.90
2023-03-08T09:02:54.254Z,16.67
2023-03-08T09:05:22.745Z,23.63
2023-03-08T09:07:50.890Z,22.40
2023-03-08T09:10:19.145Z,12.53
2023-03-08T09:12:47.225Z,17.57
2023-03-08T09:15:16.931Z,19.50
2023-03-08T09:17:45.062Z,15.80
2023-03-08T09:20:13.839Z,24.10
2023-03-08T09:22:42.321Z,18.63
2023-03-08T09:25:12.415Z,14.00
2023-03-08T09:27:43.065Z,22.07
2023-03-08T09:30:16.283Z,21.77
2023-03-08T09:32:44.761Z,16.57
2023-03-08T09:35:12.857Z,17.37
2023-03-08T09:37:40.846Z,20.17
2023-03-08T09:40:19.775Z,21.20
2023-03-08T09:42:48.092Z,20.60
2023-03-08T09:45:36.149Z,20.20
2023-03-08T09:48:11.916Z,18.43
2023-03-08T09:50:46.697Z,16.77
2023-03-08T09:53:24.580Z,21.07
2023-03-08T09:55:57.709Z,20.93
2023-03-08T09:58:36.504Z,19.20
2023-03-08T10:01:23.232Z,13.50
2023-03-08T10:04:19.401Z,11.03
2023-03-08T10:07:01.775Z,15.43
2023-03-08T10:09:35.841Z,19.47
2023-03-08T10:12:19.714Z,16.23
2023-03-08T10:14:51.936Z,15.03
2023-03-08T10:17:23.639Z,12.60
2023-03-08T10:19:58.784Z,14.73
2023-03-08T10:22:31.218Z,14.83
2023-03-08T10:25:03.698Z,19.37
2023-03-08T10:27:35.919Z,17.13
2023-03-08T10:30:15.851Z,15.73
2023-03-08T10:32:47.486Z,18.20
2023-03-08T10:35:16.089Z,20.77
2023-03-08T10:37:44.196Z,19.20
2023-03-08T10:40:20.464Z,13.07
2023-03-08T10:42:54.408Z,17.80
2023-03-08T10:45:25.543Z,12.87
2023-03-08T10:48:00.240Z,12.70
2023-03-08T10:50:30.607Z,16.77
2023-03-08T10:53:10.867Z,21.17
2023-03-08T10:55:45.872Z,19.10
2023-03-08T10:58:41.741Z,23.63
2023-03-08T11:01:27.005Z,30.57
2023-03-08T11:04:14.010Z,26.23
2023-03-08T11:06:42.363Z,25.30
2023-03-08T11:09:23.128Z,15.63
2023-03-08T11:11:51.481Z,20.20
2023-03-08T11:14:19.749Z,12.70
2023-03-08T11:16:59.449Z,19.97
2023-03-08T11:20:10.498Z,24.53
2023-03-08T11:23:03.986Z,20.90
2023-03-08T11:25:44.939Z,13.97
2023-03-08T11:28:43.804Z,14.53
2023-03-08T11:31:22.074Z,15.10
2023-03-08T11:34:16.726Z,16.63
2023-03-08T11:36:53.118Z,11.90
2023-03-08T11:39:28.295Z,17.63
2023-03-08T11:42:04.890Z,15.10
2023-03-08T11:44:52.361Z,18.20
2023-03-08T11:48:12.514Z,15.50
2023-03-08T11:50:50.046Z,13.87
2023-03-08T11:53:34.469Z,12.30
2023-03-08T11:56:29.790Z,18.93
2023-03-08T11:59:04.388Z,11.27
2023-03-08T12:01:39.085Z,11.97
2023-03-08T12:04:12.853Z,15.67
2023-03-08T12:06:43.715Z,10.60
2023-03-08T12:09:24.894Z,11.30
2023-03-08T12:11:59.390Z,11.17
2023-03-08T12:14:31.997Z,12.17
2023-03-08T12:17:09.016Z,14.83
2023-03-08T12:19:43.762Z,13.80
2023-03-08T12:22:33.443Z,13.57
2023-03-08T12:25:12.831Z,13.60
2023-03-08T12:27:47.280Z,14.50
2023-03-08T12:30:25.180Z,10.47
2023-03-08T12:32:56.435Z,11.50
2023-03-08T12:35:31.842Z,14.57
2023-03-08T12:38:04.811Z,7.20
2023-03-08T12:40:45.163Z,11.13
2023-03-08T12:43:15.651Z,8.60
2023-03-08T12:45:45.556Z,9.10
2023-03-08T12:48:25.712Z,9.97
2023-03-08T12:51:18.351Z,12.53
2023-03-08T12:54:00.367Z,7.43
2023-03-08T12:56:33.834Z,10.43
2023-03-08T12:59:04.864Z,9.00
2023-03-08T13:01:40.730Z,10.73
2023-03-08T13:04:39.758Z,10.97
2023-03-08T13:07:27.804Z,10.53
2023-03-08T13:10:03.088Z,9.37
2023-03-08T13:12:54.348Z,6.83
2023-03-08T13:15:25.969Z,8.93
2023-03-08T13:18:03.888Z,9.57
2023-03-08T13:20:53.301Z,22.53
2023-03-08T13:23:31.071Z,7.10
2023-03-08T13:26:31.318Z,8.23
2023-03-08T13:29:14.142Z,6.77
2023-03-08T13:31:42.986Z,5.73
2023-03-08T13:34:27.034Z,8.67
2023-03-08T13:36:55.711Z,6.90
2023-03-08T13:39:26.775Z,8.17
2023-03-08T13:41:54.918Z,7.77
2023-03-08T13:44:27.635Z,5.43
2023-03-08T13:46:57.928Z,6.83
2023-03-08T13:49:29.714Z,6.47
2023-03-08T13:52:02.266Z,7.00
2023-03-08T13:54:34.372Z,8.20
2023-03-08T13:57:06.261Z,7.80
2023-03-08T13:59:37.849Z,6.73
2023-03-08T14:02:21.420Z,9.50
2023-03-08T14:04:49.801Z,8.43
2023-03-08T14:07:25.606Z,7.00
2023-03-08T14:09:53.800Z,8.53
2023-03-08T14:12:25.715Z,7.20
2023-03-08T14:14:58.182Z,9.83
2023-03-08T14:17:29.665Z,8.57
2023-03-08T14:20:00.079Z,10.23
2023-03-08T14:22:39.222Z,10.90
2023-03-08T14:25:22.656Z,7.97
2023-03-08T14:27:51.090Z,7.03
2023-03-08T14:30:23.662Z,8.07
2023-03-08T14:33:04.680Z,7.53
2023-03-08T14:35:36.015Z,6.90
2023-03-08T14:38:04.787Z,8.87
2023-03-08T14:40:35.375Z,10.60
2023-03-08T14:43:06.882Z,8.33
2023-03-08T14:45:39.124Z,5.90
2023-03-08T14:48:24.992Z,10.03
2023-03-08T14:50:56.641Z,8.60
2023-03-08T14:53:30.288Z,8.17
2023-03-08T14:55:59.809Z,6.97
2023-03-08T14:58:32.314Z,8.10
2023-03-08T15:01:03.452Z,7.80
2023-03-08T15:03:33.368Z,11.03
2023-03-08T15:06:14.038Z,9.03
2023-03-08T15:08:42.158Z,10.03
2023-03-08T15:11:10.257Z,9.60
2023-03-08T15:13:38.274Z,6.20
2023-03-08T15:16:13.283Z,8.60
2023-03-08T15:18:43.486Z,9.20
2023-03-08T15:21:15.962Z,48.33
2023-03-08T15:23:44.451Z,9.57
2023-03-08T15:26:18.839Z,8.17
2023-03-08T15:28:46.881Z,43.90
2023-03-08T15:31:16.337Z,23.13
2023-03-08T15:33:44.450Z,8.70
2023-03-08T15:36:16.574Z,20.43
2023-03-08T15:38:44.844Z,14.63
2023-03-08T15:41:13.155Z,5.60
2023-03-08T15:43:41.338Z,5.10
2023-03-08T15:46:11.937Z,8.43
2023-03-08T15:48:41.343Z,6.83
2023-03-08T15:51:19.162Z,7.13
2023-03-08T15:53:47.512Z,7.70
2023-03-08T15:56:16.066Z,10.73
2023-03-08T15:58:45.944Z,5.60
2023-03-08T16:01:13.995Z,15.13
2023-03-08T16:03:43.410Z,7.70
2023-03-08T16:06:12.895Z,8.03
2023-03-08T16:08:41.134Z,7.23
2023-03-08T16:11:10.268Z,15.87
2023-03-08T16:13:41.634Z,7.53
2023-03-08T16:16:10.229Z,5.60
2023-03-08T16:18:40.360Z,7.57
2023-03-08T16:21:10.435Z,5.70
2023-03-08T16:23:41.522Z,7.60
2023-03-08T16:26:16.208Z,5.43
2023-03-08T16:28:46.498Z,8.23
2023-03-08T16:31:15.672Z,5.10
2023-03-08T16:33:43.796Z,5.60
2023-03-08T16:36:14.109Z,7.00
2023-03-08T16:38:42.774Z,8.93
2023-03-08T16:41:13.283Z,11.33
2023-03-08T16:43:47.774Z,6.97
2023-03-08T16:46:18.680Z,8.47
2023-03-08T16:48:49.217Z,16.40
2023-03-08T16:51:20.939Z,9.00
2023-03-08T16:53:49.346Z,6.90
2023-03-08T16:56:22.107Z,7.77
2023-03-08T16:58:50.446Z,9.57
2023-03-08T17:01:20.625Z,7.53
2023-03-08T17:03:48.923Z,6.30
2023-03-08T17:06:21.704Z,8.43
2023-03-08T17:08:50.728Z,14.73
2023-03-08T17:11:20.789Z,7.07
2023-03-08T17:13:51.573Z,10.30
2023-03-08T17:16:21.504Z,12.80
2023-03-08T17:18:53.032Z,8.13
2023-03-08T17:21:23.660Z,13.67
2023-03-08T17:23:52.621Z,9.67
2023-03-08T17:26:23.553Z,9.43
2023-03-08T17:28:52.306Z,11.93
2023-03-08T17:31:24.151Z,11.13
2023-03-08T17:33:52.414Z,9.67
2023-03-08T17:36:22.284Z,10.53
2023-03-08T17:38:52.789Z,11.57
2023-03-08T17:41:21.275Z,8.80
2023-03-08T17:43:49.780Z,11.07
2023-03-08T17:46:21.159Z,13.27
2023-03-08T17:48:52.804Z,12.93
2023-03-08T17:51:24.294Z,15.87
2023-03-08T17:53:52.805Z,10.97
2023-03-08T17:56:25.131Z,15.30
2023-03-08T17:58:54.114Z,14.23
2023-03-08T18:01:24.919Z,11.23
2023-03-08T18:03:55.619Z,11.70
2023-03-08T18:06:29.902Z,14.63
2023-03-08T18:08:58.902Z,16.47
2023-03-08T18:11:28.024Z,13.80
2023-03-08T18:13:56.581Z,9.93
2023-03-08T18:16:25.284Z,12.13
2023-03-08T18:18:53.332Z,10.03
2023-03-08T18:21:24.022Z,13.63
2023-03-08T18:23:54.705Z,11.57
2023-03-08T18:26:22.936Z,16.03
2023-03-08T18:28:51.254Z,8.20
2023-03-08T18:31:23.261Z,3.40
2023-03-08T18:33:54.707Z,4.20
2023-03-08T18:36:25.232Z,6.10
2023-03-08T18:38:53.233Z,3.50
2023-03-08T18:41:26.338Z,4.03
2023-03-08T18:43:55.329Z,4.67
2023-03-08T18:46:28.572Z,11.70
2023-03-08T18:48:57.120Z,2.70
2023-03-08T18:51:26.576Z,2.50
2023-03-08T18:53:55.298Z,2.20
2023-03-08T18:56:25.703Z,2.13
2023-03-08T18:58:54.274Z,2.13
2023-03-08T19:01:24.005Z,2.63
2023-03-08T19:03:52.992Z,5.80
2023-03-08T19:06:21.140Z,2.87
2023-03-08T19:08:50.473Z,4.53
2023-03-08T19:11:20.610Z,2.60
2023-03-08T19:13:49.958Z,1.83
2023-03-08T19:16:21.533Z,3.17
2023-03-08T19:18:52.021Z,2.93
2023-03-08T19:21:22.579Z,2.93
2023-03-08T19:23:52.214Z,4.27
2023-03-08T19:26:38.032Z,2.67
2023-03-08T19:29:09.923Z,2.23
2023-03-08T19:31:39.984Z,2.23
2023-03-08T19:34:08.748Z,7.03
2023-03-08T19:36:37.402Z,2.97
2023-03-08T19:39:09.800Z,3.13
2023-03-08T19:41:37.999Z,2.97
2023-03-08T19:44:07.035Z,10.70
2023-03-08T19:46:35.747Z,4.40
2023-03-08T19:49:05.773Z,3.00
2023-03-08T19:51:33.876Z,2.63
2023-03-08T19:54:02.992Z,4.50
2023-03-08T19:56:32.394Z,4.13
2023-03-08T19:59:00.999Z,4.13
2023-03-08T20:01:29.454Z,3.00
2023-03-08T20:03:57.480Z,5.13
2023-03-08T20:06:28.259Z,4.10
2023-03-08T20:08:56.987Z,17.83
2023-03-08T20:11:25.545Z,5.50
2023-03-08T20:13:55.061Z,4.20
2023-03-08T20:16:24.447Z,4.37
2023-03-08T20:18:55.369Z,4.17
2023-03-08T20:21:26.712Z,7.77
2023-03-08T20:23:56.182Z,5.63
2023-03-08T20:26:25.109Z,5.13
2023-03-08T20:28:56.887Z,3.63
2023-03-08T20:31:26.932Z,11.00
2023-03-08T20:33:55.293Z,5.17
2023-03-08T20:36:23.696Z,11.30
2023-03-08T20:38:52.034Z,5.20
2023-03-08T20:41:22.287Z,5.80
2023-03-08T20:43:52.091Z,4.73
2023-03-08T20:46:23.739Z,3.93
2023-03-08T20:48:52.277Z,3.47
2023-03-08T20:51:23.695Z,4.63
2023-03-08T20:53:54.068Z,5.50
2023-03-08T20:56:24.215Z,4.27
2023-03-08T20:58:54.441Z,6.40
2023-03-08T21:01:27.338Z,8.50
2023-03-08T21:03:55.528Z,5.30
2023-03-08T21:06:26.837Z,8.37
2023-03-08T21:09:00.562Z,3.33
2023-03-08T21:11:29.500Z,7.07
2023-03-08T21:13:57.664Z,3.83
2023-03-08T21:16:28.968Z,3.83
2023-03-08T21:19:00.375Z,4.30
2023-03-08T21:21:34.132Z,4.50
2023-03-08T21:24:05.719Z,4.20
2023-03-08T21:26:34.655Z,3.07
2023-03-08T21:29:05.444Z,3.87
2023-03-08T21:31:38.145Z,7.93
2023-03-08T21:34:07.924Z,4.30
2023-03-08T21:36:38.203Z,5.20
2023-03-08T21:39:08.086Z,4.20
2023-03-08T21:41:38.694Z,4.30
2023-03-08T21:44:10.149Z,4.13
2023-03-08T21:46:40.855Z,6.00
2023-03-08T21:49:11.049Z,3.83
2023-03-08T21:51:39.100Z,3.20
2023-03-08T21:54:07.191Z,2.30
2023-03-08T21:56:36.026Z,2.50
2023-03-08T21:59:04.566Z,3.00
2023-03-08T22:01:33.470Z,3.73
2023-03-08T22:04:04.047Z,6.00
2023-03-08T22:06:32.473Z,5.47
2023-03-08T22:09:00.640Z,3.30
2023-03-08T22:11:28.710Z,6.43
2023-03-08T22:13:59.424Z,5.40
2023-03-08T22:16:29.915Z,6.77
2023-03-08T22:19:00.947Z,10.07
2023-03-08T22:21:30.638Z,17.53
2023-03-08T22:24:01.013Z,6.77
2023-03-08T22:26:30.799Z,8.37
2023-03-08T22:28:59.423Z,8.17
2023-03-08T22:31:30.014Z,10.03
2023-03-08T22:33:58.406Z,8.97
2023-03-08T22:36:26.793Z,12.10
2023-03-08T22:38:56.192Z,10.03
2023-03-08T22:41:26.527Z,9.50
2023-03-08T22:43:57.797Z,12.80
2023-03-08T22:46:28.477Z,12.77
2023-03-08T22:48:58.116Z,9.93
2023-03-08T22:51:28.494Z,7.83
2023-03-08T22:53:59.044Z,11.73
2023-03-08T22:56:34.822Z,7.93
2023-03-08T22:59:08.205Z,11.10
2023-03-08T23:01:36.807Z,16.47
2023-03-08T23:04:08.306Z,9.00
2023-03-08T23:06:36.488Z,5.20
2023-03-08T23:09:08.713Z,11.77
2023-03-08T23:11:39.030Z,8.40
2023-03-08T23:14:08.365Z,11.17
2023-03-08T23:16:37.312Z,11.30
2023-03-08T23:19:06.832Z,9.70
2023-03-08T23:21:38.040Z,10.70
2023-03-08T23:24:08.285Z,14.47
2023-03-08T23:26:37.219Z,10.80
2023-03-08T23:29:06.704Z,11.57
2023-03-08T23:31:37.983Z,9.93
2023-03-08T23:34:07.054Z,10.60
2023-03-08T23:36:35.721Z,8.90
2023-03-08T23:39:04.528Z,7.60
2023-03-08T23:41:34.230Z,11.77
2023-03-08T23:44:03.882Z,11.97
2023-03-08T23:46:32.602Z,8.63
2023-03-08T23:49:02.855Z,8.60
2023-03-08T23:51:33.880Z,6.03
2023-03-08T23:54:03.365Z,8.40
2023-03-08T23:56:37.773Z,14.60
2023-03-08T23:59:10.737Z,6.30
